sensor_id;sensor_type;location;lat;lon;timestamp;P1;durP1;ratioP1;P2;durP2;ratioP2
38023;SDS011;23834;48.080;11.682;2022-12-29T00:01:30;2.60;;;2.40;;
38023;SDS011;23834;48.080;11.682;2022-12-29T00:03:56;2.30;;;2.10;;
38023;SDS011;23834;48.080;11.682;2022-12-29T00:06:21;2.00;;;1.90;;
38023;SDS011;23834;48.080;11.682;2022-12-29T00:08:46;2.70;;;2.50;;
38023;SDS011;23834;48.080;11.682;2022-12-29T00:11:13;2.20;;;2.10;;
38023;SDS011;23834;48.080;11.682;2022-12-29T00:13:39;1.87;;;1.77;;
38023;SDS011;23834;48.080;11.682;2022-12-29T00:16:22;2.07;;;1.93;;
38023;SDS011;23834;48.080;11.682;2022-12-29T00:18:48;2.00;;;1.90;;
38023;SDS011;23834;48.080;11.682;2022-12-29T00:21:13;2.37;;;2.17;;
38023;SDS011;23834;48.080;11.682;2022-12-29T00:23:57;2.13;;;1.93;;
38023;SDS011;23834;48.080;11.682;2022-12-29T00:26:41;1.77;;;1.67;;
38023;SDS011;23834;48.080;11.682;2022-12-29T00:29:25;2.23;;;2.00;;
38023;SDS011;23834;48.080;11.682;2022-12-29T00:32:09;2.17;;;1.90;;
38023;SDS011;23834;48.080;11.682;2022-12-29T00:34:53;1.90;;;1.80;;
38023;SDS011;23834;48.080;11.682;2022-12-29T00:37:40;2.03;;;1.83;;
38023;SDS011;23834;48.080;11.682;2022-12-29T00:40:25;2.10;;;2.00;;
38023;SDS011;23834;48.080;11.682;2022-12-29T00:43:09;2.10;;;1.90;;
38023;SDS011;23834;48.080;11.682;2022-12-29T00:45:52;1.60;;;1.50;;
38023;SDS011;23834;48.080;11.682;2022-12-29T00:48:18;1.80;;;1.70;;
38023;SDS011;23834;48.080;11.682;2022-12-29T00:51:01;2.40;;;2.20;;
38023;SDS011;23834;48.080;11.682;2022-12-29T00:53:27;1.80;;;1.60;;
38023;SDS011;23834;48.080;11.682;2022-12-29T00:55:52;1.70;;;1.60;;
38023;SDS011;23834;48.080;11.682;2022-12-29T00:58:17;1.90;;;1.20;;
38023;SDS011;23834;48.080;11.682;2022-12-29T01:00:42;1.63;;;1.53;;
38023;SDS011;23834;48.080;11.682;2022-12-29T01:03:07;1.80;;;1.70;;
38023;SDS011;23834;48.080;11.682;2022-12-29T01:05:35;1.60;;;1.50;;
38023;SDS011;23834;48.080;11.682;2022-12-29T01:08:00;1.80;;;1.67;;
38023;SDS011;23834;48.080;11.682;2022-12-29T01:10:25;1.60;;;1.50;;
38023;SDS011;23834;48.080;11.682;2022-12-29T01:12:51;1.67;;;1.47;;
38023;SDS011;23834;48.080;11.682;2022-12-29T01:15:16;1.63;;;1.53;;
38023;SDS011;23834;48.080;11.682;2022-12-29T01:17:41;1.60;;;1.50;;
38023;SDS011;23834;48.080;11.682;2022-12-29T01:20:06;1.47;;;1.37;;
38023;SDS011;23834;48.080;11.682;2022-12-29T01:22:32;1.83;;;1.73;;
38023;SDS011;23834;48.080;11.682;2022-12-29T01:24:57;1.67;;;1.57;;
38023;SDS011;23834;48.080;11.682;2022-12-29T01:27:22;1.73;;;1.50;;
38023;SDS011;23834;48.080;11.682;2022-12-29T01:29:47;1.60;;;1.50;;
38023;SDS011;23834;48.080;11.682;2022-12-29T01:32:12;1.30;;;1.30;;
38023;SDS011;23834;48.080;11.682;2022-12-29T01:34:38;1.70;;;1.60;;
38023;SDS011;23834;48.080;11.682;2022-12-29T01:37:03;1.50;;;1.40;;
38023;SDS011;23834;48.080;11.682;2022-12-29T01:39:28;1.70;;;1.60;;
38023;SDS011;23834;48.080;11.682;2022-12-29T01:41:53;1.67;;;1.57;;
38023;SDS011;23834;48.080;11.682;2022-12-29T01:47:02;1.37;;;1.37;;
38023;SDS011;23834;48.080;11.682;2022-12-29T01:49:27;1.50;;;1.40;;
38023;SDS011;23834;48.080;11.682;2022-12-29T01:51:55;1.53;;;1.40;;
38023;SDS011;23834;48.080;11.682;2022-12-29T01:54:22;1.40;;;1.30;;
38023;SDS011;23834;48.080;11.682;2022-12-29T01:56:49;1.33;;;1.23;;
38023;SDS011;23834;48.080;11.682;2022-12-29T01:59:15;1.57;;;1.37;;
38023;SDS011;23834;48.080;11.682;2022-12-29T02:01:42;1.10;;;1.00;;
38023;SDS011;23834;48.080;11.682;2022-12-29T02:04:08;1.33;;;1.33;;
38023;SDS011;23834;48.080;11.682;2022-12-29T02:06:36;1.27;;;1.07;;
38023;SDS011;23834;48.080;11.682;2022-12-29T02:09:03;1.30;;;1.20;;
38023;SDS011;23834;48.080;11.682;2022-12-29T02:11:28;1.43;;;1.10;;
38023;SDS011;23834;48.080;11.682;2022-12-29T02:13:53;1.00;;;1.00;;
38023;SDS011;23834;48.080;11.682;2022-12-29T02:21:39;1.50;;;1.30;;
38023;SDS011;23834;48.080;11.682;2022-12-29T02:26:49;1.20;;;1.10;;
38023;SDS011;23834;48.080;11.682;2022-12-29T02:35:02;1.00;;;1.00;;
38023;SDS011;23834;48.080;11.682;2022-12-29T02:37:39;1.37;;;1.27;;
38023;SDS011;23834;48.080;11.682;2022-12-29T02:45:36;1.00;;;0.90;;
38023;SDS011;23834;48.080;11.682;2022-12-29T02:48:04;0.80;;;0.80;;
38023;SDS011;23834;48.080;11.682;2022-12-29T02:50:36;1.10;;;1.00;;
38023;SDS011;23834;48.080;11.682;2022-12-29T02:53:05;1.10;;;1.00;;
38023;SDS011;23834;48.080;11.682;2022-12-29T02:55:30;1.03;;;0.97;;
38023;SDS011;23834;48.080;11.682;2022-12-29T03:00:33;1.07;;;0.97;;
38023;SDS011;23834;48.080;11.682;2022-12-29T03:08:26;1.13;;;1.10;;
38023;SDS011;23834;48.080;11.682;2022-12-29T03:10:59;0.87;;;0.87;;
38023;SDS011;23834;48.080;11.682;2022-12-29T03:16:43;1.07;;;0.87;;
38023;SDS011;23834;48.080;11.682;2022-12-29T03:19:10;1.27;;;1.17;;
38023;SDS011;23834;48.080;11.682;2022-12-29T03:21:41;1.53;;;1.10;;
38023;SDS011;23834;48.080;11.682;2022-12-29T03:24:26;1.10;;;1.10;;
38023;SDS011;23834;48.080;11.682;2022-12-29T03:26:53;1.40;;;1.30;;
38023;SDS011;23834;48.080;11.682;2022-12-29T03:29:19;1.27;;;1.20;;
38023;SDS011;23834;48.080;11.682;2022-12-29T03:31:45;1.87;;;1.77;;
38023;SDS011;23834;48.080;11.682;2022-12-29T03:34:12;1.53;;;1.43;;
38023;SDS011;23834;48.080;11.682;2022-12-29T03:36:40;1.50;;;1.40;;
38023;SDS011;23834;48.080;11.682;2022-12-29T03:39:09;1.47;;;1.37;;
38023;SDS011;23834;48.080;11.682;2022-12-29T03:41:36;1.20;;;1.10;;
38023;SDS011;23834;48.080;11.682;2022-12-29T03:44:05;1.50;;;1.40;;
38023;SDS011;23834;48.080;11.682;2022-12-29T03:46:30;1.33;;;1.23;;
38023;SDS011;23834;48.080;11.682;2022-12-29T03:48:55;1.20;;;1.10;;
38023;SDS011;23834;48.080;11.682;2022-12-29T03:51:20;1.60;;;1.50;;
38023;SDS011;23834;48.080;11.682;2022-12-29T03:53:46;1.20;;;1.10;;
38023;SDS011;23834;48.080;11.682;2022-12-29T03:56:11;1.90;;;1.30;;
38023;SDS011;23834;48.080;11.682;2022-12-29T03:58:36;1.70;;;1.60;;
38023;SDS011;23834;48.080;11.682;2022-12-29T04:01:01;0.90;;;0.90;;
38023;SDS011;23834;48.080;11.682;2022-12-29T04:03:26;1.60;;;1.50;;
38023;SDS011;23834;48.080;11.682;2022-12-29T04:05:51;1.07;;;1.00;;
38023;SDS011;23834;48.080;11.682;2022-12-29T04:08:17;1.47;;;1.37;;
38023;SDS011;23834;48.080;11.682;2022-12-29T04:10:42;1.20;;;1.20;;
38023;SDS011;23834;48.080;11.682;2022-12-29T04:13:07;1.60;;;1.20;;
38023;SDS011;23834;48.080;11.682;2022-12-29T04:15:32;1.00;;;1.00;;
38023;SDS011;23834;48.080;11.682;2022-12-29T04:17:57;1.10;;;1.00;;
38023;SDS011;23834;48.080;11.682;2022-12-29T04:20:22;1.20;;;1.10;;
38023;SDS011;23834;48.080;11.682;2022-12-29T04:23:07;1.20;;;1.10;;
38023;SDS011;23834;48.080;11.682;2022-12-29T04:25:32;1.10;;;1.00;;
38023;SDS011;23834;48.080;11.682;2022-12-29T04:27:57;1.20;;;1.10;;
38023;SDS011;23834;48.080;11.682;2022-12-29T04:30:23;1.10;;;1.00;;
38023;SDS011;23834;48.080;11.682;2022-12-29T04:32:48;1.30;;;1.20;;
38023;SDS011;23834;48.080;11.682;2022-12-29T04:35:13;1.17;;;0.93;;
38023;SDS011;23834;48.080;11.682;2022-12-29T04:37:38;1.10;;;1.10;;
38023;SDS011;23834;48.080;11.682;2022-12-29T04:40:03;0.90;;;0.90;;
38023;SDS011;23834;48.080;11.682;2022-12-29T04:42:29;1.47;;;1.00;;
38023;SDS011;23834;48.080;11.682;2022-12-29T04:44:54;1.03;;;1.03;;
38023;SDS011;23834;48.080;11.682;2022-12-29T04:47:19;1.07;;;1.03;;
38023;SDS011;23834;48.080;11.682;2022-12-29T04:49:44;0.83;;;0.83;;
38023;SDS011;23834;48.080;11.682;2022-12-29T04:52:09;1.03;;;1.03;;
38023;SDS011;23834;48.080;11.682;2022-12-29T04:54:35;1.00;;;0.87;;
38023;SDS011;23834;48.080;11.682;2022-12-29T04:57:01;0.87;;;0.87;;
38023;SDS011;23834;48.080;11.682;2022-12-29T04:59:26;0.93;;;0.93;;
38023;SDS011;23834;48.080;11.682;2022-12-29T05:01:51;1.10;;;0.93;;
38023;SDS011;23834;48.080;11.682;2022-12-29T05:04:16;1.10;;;0.80;;
38023;SDS011;23834;48.080;11.682;2022-12-29T05:06:41;0.77;;;0.77;;
38023;SDS011;23834;48.080;11.682;2022-12-29T05:09:06;0.83;;;0.83;;
38023;SDS011;23834;48.080;11.682;2022-12-29T05:11:31;1.00;;;1.00;;
38023;SDS011;23834;48.080;11.682;2022-12-29T05:13:57;0.80;;;0.80;;
38023;SDS011;23834;48.080;11.682;2022-12-29T05:16:22;1.03;;;0.93;;
38023;SDS011;23834;48.080;11.682;2022-12-29T05:18:47;1.17;;;0.90;;
38023;SDS011;23834;48.080;11.682;2022-12-29T05:21:12;0.77;;;0.77;;
38023;SDS011;23834;48.080;11.682;2022-12-29T05:23:37;0.90;;;0.90;;
38023;SDS011;23834;48.080;11.682;2022-12-29T05:26:02;0.93;;;0.80;;
38023;SDS011;23834;48.080;11.682;2022-12-29T05:28:28;0.90;;;0.90;;
38023;SDS011;23834;48.080;11.682;2022-12-29T05:30:53;1.00;;;1.00;;
38023;SDS011;23834;48.080;11.682;2022-12-29T05:33:18;0.80;;;0.80;;
38023;SDS011;23834;48.080;11.682;2022-12-29T05:35:44;1.30;;;0.97;;
38023;SDS011;23834;48.080;11.682;2022-12-29T05:38:09;0.90;;;0.87;;
38023;SDS011;23834;48.080;11.682;2022-12-29T05:40:34;0.90;;;0.80;;
38023;SDS011;23834;48.080;11.682;2022-12-29T05:42:59;0.90;;;0.90;;
38023;SDS011;23834;48.080;11.682;2022-12-29T05:45:25;1.03;;;0.97;;
38023;SDS011;23834;48.080;11.682;2022-12-29T05:47:50;0.90;;;0.90;;
38023;SDS011;23834;48.080;11.682;2022-12-29T05:50:15;0.80;;;0.80;;
38023;SDS011;23834;48.080;11.682;2022-12-29T05:52:40;0.87;;;0.87;;
38023;SDS011;23834;48.080;11.682;2022-12-29T05:55:06;0.90;;;0.70;;
38023;SDS011;23834;48.080;11.682;2022-12-29T05:57:31;0.83;;;0.83;;
38023;SDS011;23834;48.080;11.682;2022-12-29T05:59:56;1.33;;;1.10;;
38023;SDS011;23834;48.080;11.682;2022-12-29T06:02:21;0.83;;;0.83;;
38023;SDS011;23834;48.080;11.682;2022-12-29T06:04:46;1.13;;;1.00;;
38023;SDS011;23834;48.080;11.682;2022-12-29T06:07:12;1.00;;;0.93;;
38023;SDS011;23834;48.080;11.682;2022-12-29T06:09:37;0.90;;;0.90;;
38023;SDS011;23834;48.080;11.682;2022-12-29T06:12:02;0.80;;;0.80;;
38023;SDS011;23834;48.080;11.682;2022-12-29T06:14:27;0.90;;;0.80;;
38023;SDS011;23834;48.080;11.682;2022-12-29T06:16:53;0.90;;;0.90;;
38023;SDS011;23834;48.080;11.682;2022-12-29T06:19:18;0.97;;;0.80;;
38023;SDS011;23834;48.080;11.682;2022-12-29T06:21:43;0.80;;;0.80;;
38023;SDS011;23834;48.080;11.682;2022-12-29T06:24:08;0.97;;;0.80;;
38023;SDS011;23834;48.080;11.682;2022-12-29T06:26:35;0.90;;;0.90;;
38023;SDS011;23834;48.080;11.682;2022-12-29T06:29:01;1.23;;;1.03;;
38023;SDS011;23834;48.080;11.682;2022-12-29T06:31:27;0.83;;;0.70;;
38023;SDS011;23834;48.080;11.682;2022-12-29T06:33:53;1.00;;;0.90;;
38023;SDS011;23834;48.080;11.682;2022-12-29T06:36:18;1.27;;;1.17;;
38023;SDS011;23834;48.080;11.682;2022-12-29T06:38:43;0.80;;;0.80;;
38023;SDS011;23834;48.080;11.682;2022-12-29T06:41:08;0.90;;;0.90;;
38023;SDS011;23834;48.080;11.682;2022-12-29T06:43:33;0.80;;;0.80;;
38023;SDS011;23834;48.080;11.682;2022-12-29T06:46:00;0.93;;;0.93;;
38023;SDS011;23834;48.080;11.682;2022-12-29T06:48:25;0.77;;;0.77;;
38023;SDS011;23834;48.080;11.682;2022-12-29T06:50:51;0.80;;;0.60;;
38023;SDS011;23834;48.080;11.682;2022-12-29T06:53:16;0.90;;;0.90;;
38023;SDS011;23834;48.080;11.682;2022-12-29T06:55:41;1.00;;;1.00;;
38023;SDS011;23834;48.080;11.682;2022-12-29T06:58:07;0.80;;;0.80;;
38023;SDS011;23834;48.080;11.682;2022-12-29T07:00:32;1.00;;;0.90;;
38023;SDS011;23834;48.080;11.682;2022-12-29T07:02:57;0.83;;;0.83;;
38023;SDS011;23834;48.080;11.682;2022-12-29T07:05:23;0.80;;;0.80;;
38023;SDS011;23834;48.080;11.682;2022-12-29T07:07:48;1.10;;;0.93;;
38023;SDS011;23834;48.080;11.682;2022-12-29T07:10:13;0.93;;;0.93;;
38023;SDS011;23834;48.080;11.682;2022-12-29T07:12:38;0.80;;;0.80;;
38023;SDS011;23834;48.080;11.682;2022-12-29T07:15:04;1.20;;;1.10;;
38023;SDS011;23834;48.080;11.682;2022-12-29T07:17:29;1.90;;;1.10;;
38023;SDS011;23834;48.080;11.682;2022-12-29T07:19:54;1.17;;;0.80;;
38023;SDS011;23834;48.080;11.682;2022-12-29T07:22:19;0.80;;;0.80;;
38023;SDS011;23834;48.080;11.682;2022-12-29T07:24:44;1.90;;;1.00;;
38023;SDS011;23834;48.080;11.682;2022-12-29T07:27:09;1.30;;;1.20;;
38023;SDS011;23834;48.080;11.682;2022-12-29T07:29:36;1.20;;;1.10;;
38023;SDS011;23834;48.080;11.682;2022-12-29T07:32:02;1.00;;;1.00;;
38023;SDS011;23834;48.080;11.682;2022-12-29T07:34:27;1.17;;;1.07;;
38023;SDS011;23834;48.080;11.682;2022-12-29T07:36:52;1.10;;;1.03;;
38023;SDS011;23834;48.080;11.682;2022-12-29T07:39:17;0.93;;;0.93;;
38023;SDS011;23834;48.080;11.682;2022-12-29T07:41:42;0.83;;;0.83;;
38023;SDS011;23834;48.080;11.682;2022-12-29T07:44:08;0.90;;;0.90;;
38023;SDS011;23834;48.080;11.682;2022-12-29T07:46:33;0.70;;;0.70;;
38023;SDS011;23834;48.080;11.682;2022-12-29T07:48:58;0.80;;;0.80;;
38023;SDS011;23834;48.080;11.682;2022-12-29T07:51:23;0.80;;;0.80;;
38023;SDS011;23834;48.080;11.682;2022-12-29T07:53:49;1.00;;;1.00;;
38023;SDS011;23834;48.080;11.682;2022-12-29T07:56:14;1.00;;;1.00;;
38023;SDS011;23834;48.080;11.682;2022-12-29T07:58:39;1.30;;;1.23;;
38023;SDS011;23834;48.080;11.682;2022-12-29T08:01:04;1.00;;;1.00;;
38023;SDS011;23834;48.080;11.682;2022-12-29T08:03:30;1.20;;;1.10;;
38023;SDS011;23834;48.080;11.682;2022-12-29T08:05:56;1.40;;;1.30;;
38023;SDS011;23834;48.080;11.682;2022-12-29T08:08:21;1.37;;;1.27;;
38023;SDS011;23834;48.080;11.682;2022-12-29T08:10:46;1.27;;;1.17;;
38023;SDS011;23834;48.080;11.682;2022-12-29T08:13:11;1.50;;;1.40;;
38023;SDS011;23834;48.080;11.682;2022-12-29T08:15:37;1.23;;;1.17;;
38023;SDS011;23834;48.080;11.682;2022-12-29T08:18:02;1.07;;;1.00;;
38023;SDS011;23834;48.080;11.682;2022-12-29T08:20:27;1.50;;;1.40;;
38023;SDS011;23834;48.080;11.682;2022-12-29T08:22:53;1.00;;;0.90;;
38023;SDS011;23834;48.080;11.682;2022-12-29T08:25:18;1.30;;;1.20;;
38023;SDS011;23834;48.080;11.682;2022-12-29T08:27:44;1.17;;;1.17;;
38023;SDS011;23834;48.080;11.682;2022-12-29T08:30:09;0.90;;;0.90;;
38023;SDS011;23834;48.080;11.682;2022-12-29T08:32:35;1.43;;;1.33;;
38023;SDS011;23834;48.080;11.682;2022-12-29T08:35:00;1.13;;;1.13;;
38023;SDS011;23834;48.080;11.682;2022-12-29T08:37:25;1.40;;;1.30;;
38023;SDS011;23834;48.080;11.682;2022-12-29T08:39:50;1.30;;;1.30;;
38023;SDS011;23834;48.080;11.682;2022-12-29T08:42:15;1.60;;;1.13;;
38023;SDS011;23834;48.080;11.682;2022-12-29T08:44:41;1.63;;;1.50;;
38023;SDS011;23834;48.080;11.682;2022-12-29T08:47:06;1.30;;;1.23;;
38023;SDS011;23834;48.080;11.682;2022-12-29T08:49:31;2.00;;;1.50;;
38023;SDS011;23834;48.080;11.682;2022-12-29T08:51:58;1.50;;;1.40;;
38023;SDS011;23834;48.080;11.682;2022-12-29T08:54:23;1.27;;;1.17;;
38023;SDS011;23834;48.080;11.682;2022-12-29T08:56:48;1.50;;;1.40;;
38023;SDS011;23834;48.080;11.682;2022-12-29T08:59:13;1.50;;;1.40;;
38023;SDS011;23834;48.080;11.682;2022-12-29T09:01:38;1.87;;;1.50;;
38023;SDS011;23834;48.080;11.682;2022-12-29T09:04:05;1.50;;;1.40;;
38023;SDS011;23834;48.080;11.682;2022-12-29T09:06:30;1.40;;;1.30;;
38023;SDS011;23834;48.080;11.682;2022-12-29T09:08:55;1.50;;;1.40;;
38023;SDS011;23834;48.080;11.682;2022-12-29T09:11:21;1.37;;;1.27;;
38023;SDS011;23834;48.080;11.682;2022-12-29T09:13:47;1.40;;;1.30;;
38023;SDS011;23834;48.080;11.682;2022-12-29T09:16:12;1.83;;;1.50;;
38023;SDS011;23834;48.080;11.682;2022-12-29T09:18:38;1.47;;;1.37;;
38023;SDS011;23834;48.080;11.682;2022-12-29T09:21:04;2.10;;;1.47;;
38023;SDS011;23834;48.080;11.682;2022-12-29T09:23:30;1.67;;;1.57;;
38023;SDS011;23834;48.080;11.682;2022-12-29T09:25:55;1.57;;;1.47;;
38023;SDS011;23834;48.080;11.682;2022-12-29T09:28:21;2.67;;;1.50;;
38023;SDS011;23834;48.080;11.682;2022-12-29T09:30:46;2.27;;;1.60;;
38023;SDS011;23834;48.080;11.682;2022-12-29T09:33:12;1.90;;;1.80;;
38023;SDS011;23834;48.080;11.682;2022-12-29T09:35:37;1.73;;;1.60;;
38023;SDS011;23834;48.080;11.682;2022-12-29T09:38:05;2.30;;;1.40;;
38023;SDS011;23834;48.080;11.682;2022-12-29T09:40:31;2.03;;;1.80;;
38023;SDS011;23834;48.080;11.682;2022-12-29T09:45:36;1.90;;;1.60;;
38023;SDS011;23834;48.080;11.682;2022-12-29T09:48:06;1.80;;;1.50;;
38023;SDS011;23834;48.080;11.682;2022-12-29T09:50:36;1.50;;;1.40;;
38023;SDS011;23834;48.080;11.682;2022-12-29T09:53:08;1.93;;;1.70;;
38023;SDS011;23834;48.080;11.682;2022-12-29T09:55:45;1.50;;;1.40;;
38023;SDS011;23834;48.080;11.682;2022-12-29T09:58:12;1.60;;;1.50;;
38023;SDS011;23834;48.080;11.682;2022-12-29T10:03:16;1.80;;;1.70;;
38023;SDS011;23834;48.080;11.682;2022-12-29T10:14:04;1.30;;;1.20;;
38023;SDS011;23834;48.080;11.682;2022-12-29T10:16:49;1.70;;;1.60;;
38023;SDS011;23834;48.080;11.682;2022-12-29T10:19:28;1.73;;;1.63;;
38023;SDS011;23834;48.080;11.682;2022-12-29T10:22:04;1.27;;;1.17;;
38023;SDS011;23834;48.080;11.682;2022-12-29T10:24:33;1.40;;;1.30;;
38023;SDS011;23834;48.080;11.682;2022-12-29T10:26:59;1.50;;;1.40;;
38023;SDS011;23834;48.080;11.682;2022-12-29T10:29:26;1.50;;;1.40;;
38023;SDS011;23834;48.080;11.682;2022-12-29T10:34:25;1.57;;;1.47;;
38023;SDS011;23834;48.080;11.682;2022-12-29T10:36:57;1.33;;;1.23;;
38023;SDS011;23834;48.080;11.682;2022-12-29T10:39:33;1.40;;;1.30;;
38023;SDS011;23834;48.080;11.682;2022-12-29T10:42:09;1.60;;;1.50;;
38023;SDS011;23834;48.080;11.682;2022-12-29T10:44:35;1.50;;;1.40;;
38023;SDS011;23834;48.080;11.682;2022-12-29T10:47:09;1.50;;;1.40;;
38023;SDS011;23834;48.080;11.682;2022-12-29T10:49:38;1.83;;;1.60;;
38023;SDS011;23834;48.080;11.682;2022-12-29T10:52:04;1.23;;;1.13;;
38023;SDS011;23834;48.080;11.682;2022-12-29T10:54:32;2.40;;;1.63;;
38023;SDS011;23834;48.080;11.682;2022-12-29T10:57:12;1.70;;;1.37;;
38023;SDS011;23834;48.080;11.682;2022-12-29T10:59:39;1.70;;;1.60;;
38023;SDS011;23834;48.080;11.682;2022-12-29T11:04:40;2.15;;;1.20;;
38023;SDS011;23834;48.080;11.682;2022-12-29T11:07:06;1.40;;;1.30;;
38023;SDS011;23834;48.080;11.682;2022-12-29T11:09:32;1.40;;;1.27;;
38023;SDS011;23834;48.080;11.682;2022-12-29T11:11:58;1.47;;;1.03;;
38023;SDS011;23834;48.080;11.682;2022-12-29T11:14:28;1.50;;;1.40;;
38023;SDS011;23834;48.080;11.682;2022-12-29T11:16:58;1.97;;;1.30;;
38023;SDS011;23834;48.080;11.682;2022-12-29T11:19:24;1.63;;;1.53;;
38023;SDS011;23834;48.080;11.682;2022-12-29T11:21:50;1.10;;;1.10;;
38023;SDS011;23834;48.080;11.682;2022-12-29T11:24:26;0.90;;;0.90;;
38023;SDS011;23834;48.080;11.682;2022-12-29T11:26:52;1.53;;;1.43;;
38023;SDS011;23834;48.080;11.682;2022-12-29T11:31:54;1.00;;;0.93;;
38023;SDS011;23834;48.080;11.682;2022-12-29T11:34:30;2.20;;;1.30;;
38023;SDS011;23834;48.080;11.682;2022-12-29T11:37:38;1.60;;;1.27;;
38023;SDS011;23834;48.080;11.682;2022-12-29T11:40:18;1.33;;;1.23;;
38023;SDS011;23834;48.080;11.682;2022-12-29T11:42:37;1.43;;;1.33;;
38023;SDS011;23834;48.080;11.682;2022-12-29T11:45:44;1.60;;;1.50;;
38023;SDS011;23834;48.080;11.682;2022-12-29T11:47:55;1.10;;;1.10;;
38023;SDS011;23834;48.080;11.682;2022-12-29T11:50:22;1.23;;;1.13;;
38023;SDS011;23834;48.080;11.682;2022-12-29T11:52:48;1.20;;;1.10;;
38023;SDS011;23834;48.080;11.682;2022-12-29T11:55:20;1.17;;;1.07;;
38023;SDS011;23834;48.080;11.682;2022-12-29T11:57:46;1.20;;;1.10;;
38023;SDS011;23834;48.080;11.682;2022-12-29T12:00:16;1.30;;;1.20;;
38023;SDS011;23834;48.080;11.682;2022-12-29T12:02:45;1.30;;;1.20;;
38023;SDS011;23834;48.080;11.682;2022-12-29T12:07:42;1.13;;;0.90;;
38023;SDS011;23834;48.080;11.682;2022-12-29T12:10:13;1.37;;;0.93;;
38023;SDS011;23834;48.080;11.682;2022-12-29T12:12:41;1.50;;;1.07;;
38023;SDS011;23834;48.080;11.682;2022-12-29T12:15:13;0.83;;;0.83;;
38023;SDS011;23834;48.080;11.682;2022-12-29T12:17:44;1.10;;;1.00;;
38023;SDS011;23834;48.080;11.682;2022-12-29T12:25:25;1.13;;;1.10;;
38023;SDS011;23834;48.080;11.682;2022-12-29T12:30:19;0.93;;;0.90;;
38023;SDS011;23834;48.080;11.682;2022-12-29T12:33:06;0.97;;;0.97;;
38023;SDS011;23834;48.080;11.682;2022-12-29T12:53:29;0.80;;;0.80;;
38023;SDS011;23834;48.080;11.682;2022-12-29T13:11:51;1.20;;;1.10;;
38023;SDS011;23834;48.080;11.682;2022-12-29T13:14:34;1.10;;;0.80;;
38023;SDS011;23834;48.080;11.682;2022-12-29T13:17:15;0.90;;;0.80;;
38023;SDS011;23834;48.080;11.682;2022-12-29T13:19:47;1.33;;;1.23;;
38023;SDS011;23834;48.080;11.682;2022-12-29T13:27:40;0.70;;;0.70;;
38023;SDS011;23834;48.080;11.682;2022-12-29T13:30:13;1.10;;;1.00;;
38023;SDS011;23834;48.080;11.682;2022-12-29T13:32:44;0.87;;;0.87;;
38023;SDS011;23834;48.080;11.682;2022-12-29T13:38:05;0.90;;;0.90;;
38023;SDS011;23834;48.080;11.682;2022-12-29T13:40:34;0.90;;;0.90;;
38023;SDS011;23834;48.080;11.682;2022-12-29T13:43:03;1.10;;;1.00;;
38023;SDS011;23834;48.080;11.682;2022-12-29T13:45:29;1.30;;;1.20;;
38023;SDS011;23834;48.080;11.682;2022-12-29T13:47:57;1.53;;;1.13;;
38023;SDS011;23834;48.080;11.682;2022-12-29T13:50:26;1.20;;;0.80;;
38023;SDS011;23834;48.080;11.682;2022-12-29T13:55:32;1.07;;;0.97;;
38023;SDS011;23834;48.080;11.682;2022-12-29T14:03:27;1.00;;;1.00;;
38023;SDS011;23834;48.080;11.682;2022-12-29T14:08:29;1.10;;;1.00;;
38023;SDS011;23834;48.080;11.682;2022-12-29T14:10:58;2.03;;;0.93;;
38023;SDS011;23834;48.080;11.682;2022-12-29T14:13:30;1.90;;;1.20;;
38023;SDS011;23834;48.080;11.682;2022-12-29T14:15:56;1.20;;;1.10;;
38023;SDS011;23834;48.080;11.682;2022-12-29T14:18:25;1.30;;;1.00;;
38023;SDS011;23834;48.080;11.682;2022-12-29T14:26:13;1.03;;;0.93;;
38023;SDS011;23834;48.080;11.682;2022-12-29T14:28:40;1.17;;;1.03;;
38023;SDS011;23834;48.080;11.682;2022-12-29T14:31:32;0.90;;;0.90;;
38023;SDS011;23834;48.080;11.682;2022-12-29T14:36:34;0.90;;;0.90;;
38023;SDS011;23834;48.080;11.682;2022-12-29T14:39:00;0.83;;;0.83;;
38023;SDS011;23834;48.080;11.682;2022-12-29T14:41:27;0.83;;;0.83;;
38023;SDS011;23834;48.080;11.682;2022-12-29T14:43:54;1.20;;;1.10;;
38023;SDS011;23834;48.080;11.682;2022-12-29T14:46:19;0.87;;;0.87;;
38023;SDS011;23834;48.080;11.682;2022-12-29T14:48:45;1.23;;;1.07;;
38023;SDS011;23834;48.080;11.682;2022-12-29T14:51:17;0.97;;;0.97;;
38023;SDS011;23834;48.080;11.682;2022-12-29T14:53:45;1.60;;;1.50;;
38023;SDS011;23834;48.080;11.682;2022-12-29T14:56:11;1.20;;;1.10;;
38023;SDS011;23834;48.080;11.682;2022-12-29T15:01:19;1.03;;;0.97;;
38023;SDS011;23834;48.080;11.682;2022-12-29T15:03:46;1.20;;;1.10;;
38023;SDS011;23834;48.080;11.682;2022-12-29T15:06:13;1.20;;;1.10;;
38023;SDS011;23834;48.080;11.682;2022-12-29T15:08:49;1.07;;;0.90;;
38023;SDS011;23834;48.080;11.682;2022-12-29T15:11:23;2.83;;;1.27;;
38023;SDS011;23834;48.080;11.682;2022-12-29T15:13:48;1.20;;;1.10;;
38023;SDS011;23834;48.080;11.682;2022-12-29T15:18:48;1.13;;;1.03;;
38023;SDS011;23834;48.080;11.682;2022-12-29T15:21:14;1.50;;;1.40;;
38023;SDS011;23834;48.080;11.682;2022-12-29T15:23:40;1.20;;;1.10;;
38023;SDS011;23834;48.080;11.682;2022-12-29T15:26:07;1.83;;;1.40;;
38023;SDS011;23834;48.080;11.682;2022-12-29T15:28:52;2.37;;;1.50;;
38023;SDS011;23834;48.080;11.682;2022-12-29T15:33:44;1.80;;;1.50;;
38023;SDS011;23834;48.080;11.682;2022-12-29T15:36:13;1.80;;;1.63;;
38023;SDS011;23834;48.080;11.682;2022-12-29T15:38:39;1.73;;;1.63;;
38023;SDS011;23834;48.080;11.682;2022-12-29T15:41:05;1.57;;;1.47;;
38023;SDS011;23834;48.080;11.682;2022-12-29T15:43:40;2.13;;;1.50;;
38023;SDS011;23834;48.080;11.682;2022-12-29T15:46:08;2.00;;;1.70;;
38023;SDS011;23834;48.080;11.682;2022-12-29T15:48:35;1.50;;;1.40;;
38023;SDS011;23834;48.080;11.682;2022-12-29T15:51:00;1.60;;;1.50;;
38023;SDS011;23834;48.080;11.682;2022-12-29T15:53:27;1.50;;;1.40;;
38023;SDS011;23834;48.080;11.682;2022-12-29T15:55:59;1.60;;;1.50;;
38023;SDS011;23834;48.080;11.682;2022-12-29T15:58:26;2.43;;;1.60;;
38023;SDS011;23834;48.080;11.682;2022-12-29T16:00:53;1.60;;;1.50;;
38023;SDS011;23834;48.080;11.682;2022-12-29T16:03:20;2.30;;;1.77;;
38023;SDS011;23834;48.080;11.682;2022-12-29T16:05:50;2.00;;;1.80;;
38023;SDS011;23834;48.080;11.682;2022-12-29T16:10:47;2.30;;;1.73;;
38023;SDS011;23834;48.080;11.682;2022-12-29T16:15:37;1.70;;;1.60;;
38023;SDS011;23834;48.080;11.682;2022-12-29T16:18:03;1.97;;;1.77;;
38023;SDS011;23834;48.080;11.682;2022-12-29T16:20:33;2.10;;;2.00;;
38023;SDS011;23834;48.080;11.682;2022-12-29T16:22:59;2.17;;;1.43;;
38023;SDS011;23834;48.080;11.682;2022-12-29T16:25:28;2.70;;;2.00;;
38023;SDS011;23834;48.080;11.682;2022-12-29T16:27:56;2.30;;;2.10;;
38023;SDS011;23834;48.080;11.682;2022-12-29T16:30:23;2.10;;;2.00;;
38023;SDS011;23834;48.080;11.682;2022-12-29T16:32:49;2.13;;;1.93;;
38023;SDS011;23834;48.080;11.682;2022-12-29T16:35:19;1.80;;;1.70;;
38023;SDS011;23834;48.080;11.682;2022-12-29T16:37:45;1.97;;;1.87;;
38023;SDS011;23834;48.080;11.682;2022-12-29T16:42:46;2.20;;;2.00;;
38023;SDS011;23834;48.080;11.682;2022-12-29T16:47:45;2.30;;;1.90;;
38023;SDS011;23834;48.080;11.682;2022-12-29T16:50:11;2.10;;;1.90;;
38023;SDS011;23834;48.080;11.682;2022-12-29T16:52:37;1.90;;;1.80;;
38023;SDS011;23834;48.080;11.682;2022-12-29T16:55:02;2.40;;;2.20;;
38023;SDS011;23834;48.080;11.682;2022-12-29T16:57:28;2.07;;;1.90;;
38023;SDS011;23834;48.080;11.682;2022-12-29T16:59:55;1.83;;;1.73;;